sensor_id;sensor_type;location;lat;lon;timestamp;pressure;altitude;pressure_sealevel;temperature;humidity
10135;BME280;5107;48.850;8.924;2023-09-12T00:00:44;96490.16;;;21.41;65.88
10135;BME280;5107;48.850;8.924;2023-09-12T00:03:09;96487.63;;;21.51;65.47
10135;BME280;5107;48.850;8.924;2023-09-12T00:05:35;96483.47;;;21.43;65.64
10135;BME280;5107;48.850;8.924;2023-09-12T00:08:00;96486.16;;;21.43;65.70
10135;BME280;5107;48.850;8.924;2023-09-12T00:10:26;96479.91;;;21.38;65.81
10135;BME280;5107;48.850;8.924;2023-09-12T00:12:51;96484.94;;;21.34;66.10
10135;BME280;5107;48.850;8.924;2023-09-12T00:15:18;96478.47;;;21.47;65.80
10135;BME280;5107;48.850;8.924;2023-09-12T00:17:45;96475.22;;;21.45;65.91
10135;BME280;5107;48.850;8.924;2023-09-12T00:20:10;96481.78;;;21.54;65.37
10135;BME280;5107;48.850;8.924;2023-09-12T00:22:36;96482.53;;;21.49;65.87
10135;BME280;5107;48.850;8.924;2023-09-12T00:25:01;96483.81;;;21.30;66.49
10135;BME280;5107;48.850;8.924;2023-09-12T00:27:27;96472.88;;;21.32;66.21
10135;BME280;5107;48.850;8.924;2023-09-12T00:29:52;96467.00;;;21.18;67.21
10135;BME280;5107;48.850;8.924;2023-09-12T00:32:17;96471.25;;;21.02;67.89
10135;BME280;5107;48.850;8.924;2023-09-12T00:34:43;96469.09;;;20.99;68.25
10135;BME280;5107;48.850;8.924;2023-09-12T00:37:08;96472.22;;;20.96;68.39
10135;BME280;5107;48.850;8.924;2023-09-12T00:39:33;96470.59;;;20.95;68.16
10135;BME280;5107;48.850;8.924;2023-09-12T00:41:59;96478.97;;;20.99;67.48
10135;BME280;5107;48.850;8.924;2023-09-12T00:44:24;96475.38;;;21.22;66.29
10135;BME280;5107;48.850;8.924;2023-09-12T00:46:50;96466.59;;;21.26;66.32
10135;BME280;5107;48.850;8.924;2023-09-12T00:49:17;96471.00;;;21.32;66.01
10135;BME280;5107;48.850;8.924;2023-09-12T00:51:44;96469.44;;;21.36;66.07
10135;BME280;5107;48.850;8.924;2023-09-12T00:54:11;96463.53;;;21.34;65.95
10135;BME280;5107;48.850;8.924;2023-09-12T00:56:36;96469.03;;;21.28;65.94
10135;BME280;5107;48.850;8.924;2023-09-12T00:59:02;96467.41;;;21.27;66.11
10135;BME280;5107;48.850;8.924;2023-09-12T01:01:28;96460.19;;;21.27;65.81
10135;BME280;5107;48.850;8.924;2023-09-12T01:03:54;96457.78;;;21.26;65.99
10135;BME280;5107;48.850;8.924;2023-09-12T01:06:22;96461.75;;;21.23;65.91
10135;BME280;5107;48.850;8.924;2023-09-12T01:08:49;96452.03;;;21.17;66.86
10135;BME280;5107;48.850;8.924;2023-09-12T01:11:14;96458.81;;;21.08;67.09
10135;BME280;5107;48.850;8.924;2023-09-12T01:13:40;96460.09;;;21.05;66.79
10135;BME280;5107;48.850;8.924;2023-09-12T01:16:05;96461.03;;;20.82;68.23
10135;BME280;5107;48.850;8.924;2023-09-12T01:18:31;96454.47;;;20.62;68.96
10135;BME280;5107;48.850;8.924;2023-09-12T01:24:02;96455.16;;;20.29;70.28
10135;BME280;5107;48.850;8.924;2023-09-12T01:26:42;96460.78;;;20.16;71.26
10135;BME280;5107;48.850;8.924;2023-09-12T01:29:14;96457.22;;;19.98;71.69
10135;BME280;5107;48.850;8.924;2023-09-12T01:47:34;96461.75;;;19.86;73.18
10135;BME280;5107;48.850;8.924;2023-09-12T01:50:01;96452.56;;;19.94;72.80
10135;BME280;5107;48.850;8.924;2023-09-12T01:52:27;96453.44;;;20.23;71.10
10135;BME280;5107;48.850;8.924;2023-09-12T01:54:53;96455.44;;;20.56;69.83
10135;BME280;5107;48.850;8.924;2023-09-12T01:57:19;96453.78;;;20.66;69.31
10135;BME280;5107;48.850;8.924;2023-09-12T01:59:49;96455.72;;;20.71;68.87
10135;BME280;5107;48.850;8.924;2023-09-12T02:02:17;96449.47;;;20.65;69.38
10135;BME280;5107;48.850;8.924;2023-09-12T02:05:11;96453.59;;;20.56;69.46
10135;BME280;5107;48.850;8.924;2023-09-12T02:07:40;96459.56;;;20.35;70.79
10135;BME280;5107;48.850;8.924;2023-09-12T02:10:06;96454.56;;;20.27;71.00
10135;BME280;5107;48.850;8.924;2023-09-12T02:12:32;96446.94;;;20.19;71.44
10135;BME280;5107;48.850;8.924;2023-09-12T02:14:57;96442.41;;;20.19;71.27
10135;BME280;5107;48.850;8.924;2023-09-12T02:17:22;96446.94;;;20.19;71.23
10135;BME280;5107;48.850;8.924;2023-09-12T02:19:48;96445.22;;;20.13;71.93
10135;BME280;5107;48.850;8.924;2023-09-12T02:22:13;96452.66;;;20.11;71.98
10135;BME280;5107;48.850;8.924;2023-09-12T02:24:39;96450.69;;;20.06;71.74
10135;BME280;5107;48.850;8.924;2023-09-12T02:27:04;96450.19;;;20.09;72.09
10135;BME280;5107;48.850;8.924;2023-09-12T02:29:30;96443.34;;;20.13;71.82
10135;BME280;5107;48.850;8.924;2023-09-12T02:31:57;96445.56;;;20.16;71.59
10135;BME280;5107;48.850;8.924;2023-09-12T02:34:22;96443.59;;;20.12;71.72
10135;BME280;5107;48.850;8.924;2023-09-12T02:36:48;96444.84;;;20.09;71.93
10135;BME280;5107;48.850;8.924;2023-09-12T02:39:13;96436.84;;;20.09;72.00
10135;BME280;5107;48.850;8.924;2023-09-12T02:41:39;96435.34;;;20.13;71.59
10135;BME280;5107;48.850;8.924;2023-09-12T02:44:04;96441.03;;;20.17;71.58
10135;BME280;5107;48.850;8.924;2023-09-12T02:46:30;96438.09;;;20.18;71.57
10135;BME280;5107;48.850;8.924;2023-09-12T02:48:55;96435.69;;;20.17;71.26
10135;BME280;5107;48.850;8.924;2023-09-12T02:51:21;96434.81;;;20.28;71.08
10135;BME280;5107;48.850;8.924;2023-09-12T02:53:46;96436.81;;;20.21;70.75
10135;BME280;5107;48.850;8.924;2023-09-12T02:56:11;96431.00;;;20.24;71.01
10135;BME280;5107;48.850;8.924;2023-09-12T02:58:37;96436.63;;;20.11;71.41
10135;BME280;5107;48.850;8.924;2023-09-12T03:01:02;96435.47;;;20.06;71.79
10135;BME280;5107;48.850;8.924;2023-09-12T03:03:30;96426.66;;;20.06;71.95
10135;BME280;5107;48.850;8.924;2023-09-12T03:06:01;96429.34;;;19.94;72.91
10135;BME280;5107;48.850;8.924;2023-09-12T03:08:29;96428.19;;;19.90;72.89
10135;BME280;5107;48.850;8.924;2023-09-12T03:10:55;96436.53;;;19.94;72.06
10135;BME280;5107;48.850;8.924;2023-09-12T03:13:22;96433.63;;;19.95;72.81
10135;BME280;5107;48.850;8.924;2023-09-12T03:15:47;96432.44;;;20.03;71.77
10135;BME280;5107;48.850;8.924;2023-09-12T03:18:12;96436.22;;;19.90;72.43
10135;BME280;5107;48.850;8.924;2023-09-12T03:20:38;96429.69;;;19.98;72.17
10135;BME280;5107;48.850;8.924;2023-09-12T03:23:04;96425.25;;;19.92;72.22
10135;BME280;5107;48.850;8.924;2023-09-12T03:25:30;96424.34;;;19.98;71.99
10135;BME280;5107;48.850;8.924;2023-09-12T03:27:55;96422.13;;;19.95;71.64
10135;BME280;5107;48.850;8.924;2023-09-12T03:30:20;96419.13;;;19.91;71.38
10135;BME280;5107;48.850;8.924;2023-09-12T03:32:46;96426.81;;;19.88;71.83
10135;BME280;5107;48.850;8.924;2023-09-12T03:35:11;96421.00;;;19.79;72.21
10135;BME280;5107;48.850;8.924;2023-09-12T03:37:37;96422.72;;;19.85;71.62
10135;BME280;5107;48.850;8.924;2023-09-12T03:40:06;96414.34;;;19.93;71.06
10135;BME280;5107;48.850;8.924;2023-09-12T03:42:32;96418.19;;;19.97;70.73
10135;BME280;5107;48.850;8.924;2023-09-12T03:44:57;96423.63;;;20.02;70.49
10135;BME280;5107;48.850;8.924;2023-09-12T03:47:23;96423.03;;;20.12;70.27
10135;BME280;5107;48.850;8.924;2023-09-12T03:49:48;96417.69;;;20.12;70.55
10135;BME280;5107;48.850;8.924;2023-09-12T03:52:13;96414.78;;;20.14;70.10
10135;BME280;5107;48.850;8.924;2023-09-12T03:54:38;96423.47;;;20.21;70.19
10135;BME280;5107;48.850;8.924;2023-09-12T03:57:04;96418.13;;;20.21;69.55
10135;BME280;5107;48.850;8.924;2023-09-12T03:59:29;96409.75;;;20.17;69.81
10135;BME280;5107;48.850;8.924;2023-09-12T04:01:54;96410.94;;;20.09;70.50
10135;BME280;5107;48.850;8.924;2023-09-12T04:04:20;96418.28;;;20.02;70.89
10135;BME280;5107;48.850;8.924;2023-09-12T04:06:45;96417.59;;;19.95;71.40
10135;BME280;5107;48.850;8.924;2023-09-12T04:09:11;96413.88;;;19.96;71.11
10135;BME280;5107;48.850;8.924;2023-09-12T04:11:37;96410.16;;;19.97;71.58
10135;BME280;5107;48.850;8.924;2023-09-12T04:14:02;96413.66;;;19.98;71.76
10135;BME280;5107;48.850;8.924;2023-09-12T04:16:28;96408.63;;;20.01;71.32
10135;BME280;5107;48.850;8.924;2023-09-12T04:18:53;96410.25;;;20.02;71.71
10135;BME280;5107;48.850;8.924;2023-09-12T04:21:18;96415.41;;;19.92;72.37
10135;BME280;5107;48.850;8.924;2023-09-12T04:23:43;96416.34;;;19.86;72.75
10135;BME280;5107;48.850;8.924;2023-09-12T04:26:09;96420.88;;;19.86;72.71
10135;BME280;5107;48.850;8.924;2023-09-12T04:28:34;96412.53;;;19.82;72.77
10135;BME280;5107;48.850;8.924;2023-09-12T04:31:03;96413.56;;;19.81;73.05
10135;BME280;5107;48.850;8.924;2023-09-12T04:33:29;96411.38;;;19.78;73.41
10135;BME280;5107;48.850;8.924;2023-09-12T04:35:57;96405.69;;;19.75;73.39
10135;BME280;5107;48.850;8.924;2023-09-12T04:38:22;96404.88;;;19.74;73.43
10135;BME280;5107;48.850;8.924;2023-09-12T04:40:56;96403.03;;;19.75;73.22
10135;BME280;5107;48.850;8.924;2023-09-12T04:43:22;96399.88;;;19.78;73.23
10135;BME280;5107;48.850;8.924;2023-09-12T04:45:48;96413.44;;;19.76;73.30
10135;BME280;5107;48.850;8.924;2023-09-12T04:48:13;96412.84;;;19.86;73.22
10135;BME280;5107;48.850;8.924;2023-09-12T04:50:42;96417.97;;;19.99;72.35
10135;BME280;5107;48.850;8.924;2023-09-12T04:53:10;96412.03;;;20.25;70.87
10135;BME280;5107;48.850;8.924;2023-09-12T04:55:36;96407.28;;;20.39;69.94
10135;BME280;5107;48.850;8.924;2023-09-12T04:58:01;96410.22;;;20.54;68.96
10135;BME280;5107;48.850;8.924;2023-09-12T05:00:27;96414.34;;;20.45;69.78
10135;BME280;5107;48.850;8.924;2023-09-12T05:02:52;96411.72;;;20.22;70.30
10135;BME280;5107;48.850;8.924;2023-09-12T05:05:17;96407.81;;;20.13;70.76
10135;BME280;5107;48.850;8.924;2023-09-12T05:07:43;96417.75;;;20.17;70.95
10135;BME280;5107;48.850;8.924;2023-09-12T05:10:08;96417.31;;;20.20;70.81
10135;BME280;5107;48.850;8.924;2023-09-12T05:12:34;96411.72;;;20.22;70.49
10135;BME280;5107;48.850;8.924;2023-09-12T05:14:59;96412.19;;;20.19;70.36
10135;BME280;5107;48.850;8.924;2023-09-12T05:17:24;96411.25;;;20.25;70.55
10135;BME280;5107;48.850;8.924;2023-09-12T05:19:50;96413.75;;;20.43;69.45
10135;BME280;5107;48.850;8.924;2023-09-12T05:22:15;96407.81;;;20.69;69.00
10135;BME280;5107;48.850;8.924;2023-09-12T05:24:41;96416.59;;;20.81;68.26
10135;BME280;5107;48.850;8.924;2023-09-12T05:27:06;96415.06;;;20.86;68.16
10135;BME280;5107;48.850;8.924;2023-09-12T05:29:31;96417.72;;;20.86;67.78
10135;BME280;5107;48.850;8.924;2023-09-12T05:31:57;96421.22;;;20.86;67.74
10135;BME280;5107;48.850;8.924;2023-09-12T05:34:22;96424.94;;;21.02;67.12
10135;BME280;5107;48.850;8.924;2023-09-12T05:36:47;96432.22;;;21.18;66.66
10135;BME280;5107;48.850;8.924;2023-09-12T05:39:12;96431.84;;;21.65;65.47
10135;BME280;5107;48.850;8.924;2023-09-12T05:41:39;96436.16;;;21.66;65.25
10135;BME280;5107;48.850;8.924;2023-09-12T05:44:04;96438.34;;;21.69;65.14
10135;BME280;5107;48.850;8.924;2023-09-12T05:46:30;96434.47;;;21.43;65.58
10135;BME280;5107;48.850;8.924;2023-09-12T05:48:55;96440.22;;;21.51;65.52
10135;BME280;5107;48.850;8.924;2023-09-12T05:51:20;96443.53;;;21.75;65.11
10135;BME280;5107;48.850;8.924;2023-09-12T05:53:46;96448.03;;;22.08;63.81
10135;BME280;5107;48.850;8.924;2023-09-12T05:56:11;96455.22;;;22.73;61.26
10135;BME280;5107;48.850;8.924;2023-09-12T05:58:36;96454.09;;;23.23;59.45
10135;BME280;5107;48.850;8.924;2023-09-12T06:01:06;96463.72;;;23.88;57.54
10135;BME280;5107;48.850;8.924;2023-09-12T06:03:32;96461.50;;;23.74;58.01
10135;BME280;5107;48.850;8.924;2023-09-12T06:05:57;96469.38;;;23.49;58.78
10135;BME280;5107;48.850;8.924;2023-09-12T06:08:22;96461.66;;;23.31;59.66
10135;BME280;5107;48.850;8.924;2023-09-12T06:10:48;96458.91;;;23.21;60.50
10135;BME280;5107;48.850;8.924;2023-09-12T06:13:14;96466.31;;;23.08;60.87
10135;BME280;5107;48.850;8.924;2023-09-12T06:15:39;96470.78;;;22.98;61.66
10135;BME280;5107;48.850;8.924;2023-09-12T06:18:06;96468.91;;;22.98;60.55
10135;BME280;5107;48.850;8.924;2023-09-12T06:20:31;96462.97;;;22.96;61.47
10135;BME280;5107;48.850;8.924;2023-09-12T06:22:57;96465.56;;;22.86;61.99
10135;BME280;5107;48.850;8.924;2023-09-12T06:25:23;96468.69;;;22.78;62.12
10135;BME280;5107;48.850;8.924;2023-09-12T06:27:49;96471.91;;;22.75;63.11
10135;BME280;5107;48.850;8.924;2023-09-12T06:30:15;96470.03;;;22.76;62.94
10135;BME280;5107;48.850;8.924;2023-09-12T06:32:40;96473.53;;;22.76;62.61
10135;BME280;5107;48.850;8.924;2023-09-12T06:35:06;96471.63;;;22.77;62.72
10135;BME280;5107;48.850;8.924;2023-09-12T06:37:32;96470.03;;;22.76;63.19
10135;BME280;5107;48.850;8.924;2023-09-12T06:39:57;96474.06;;;22.78;63.74
10135;BME280;5107;48.850;8.924;2023-09-12T06:42:22;96474.63;;;22.80;63.83
10135;BME280;5107;48.850;8.924;2023-09-12T06:44:48;96479.84;;;22.92;62.89
10135;BME280;5107;48.850;8.924;2023-09-12T06:47:13;96480.56;;;23.09;63.07
10135;BME280;5107;48.850;8.924;2023-09-12T06:49:38;96479.19;;;23.06;62.21
10135;BME280;5107;48.850;8.924;2023-09-12T06:52:04;96473.84;;;23.12;61.91
10135;BME280;5107;48.850;8.924;2023-09-12T06:54:30;96480.44;;;23.26;61.61
10135;BME280;5107;48.850;8.924;2023-09-12T06:56:55;96479.97;;;23.34;60.54
10135;BME280;5107;48.850;8.924;2023-09-12T06:59:20;96488.66;;;23.46;60.84
10135;BME280;5107;48.850;8.924;2023-09-12T07:01:46;96489.66;;;23.67;59.87
10135;BME280;5107;48.850;8.924;2023-09-12T07:04:11;96494.63;;;23.85;59.63
10135;BME280;5107;48.850;8.924;2023-09-12T07:06:36;96501.66;;;24.33;57.52
10135;BME280;5107;48.850;8.924;2023-09-12T07:09:02;96497.09;;;25.47;55.60
10135;BME280;5107;48.850;8.924;2023-09-12T07:11:29;96492.25;;;25.89;53.03
10135;BME280;5107;48.850;8.924;2023-09-12T07:13:55;96495.47;;;26.01;53.10
10135;BME280;5107;48.850;8.924;2023-09-12T07:16:20;96490.66;;;26.73;51.59
10135;BME280;5107;48.850;8.924;2023-09-12T07:18:45;96493.94;;;26.65;50.93
10135;BME280;5107;48.850;8.924;2023-09-12T07:21:11;96500.69;;;26.62;51.47
10135;BME280;5107;48.850;8.924;2023-09-12T07:23:37;96497.97;;;26.67;51.05
10135;BME280;5107;48.850;8.924;2023-09-12T07:26:03;96499.53;;;26.78;50.55
10135;BME280;5107;48.850;8.924;2023-09-12T07:28:30;96500.88;;;25.91;51.45
10135;BME280;5107;48.850;8.924;2023-09-12T07:30:55;96493.25;;;26.24;52.38
10135;BME280;5107;48.850;8.924;2023-09-12T07:33:21;96497.06;;;27.31;51.55
10135;BME280;5107;48.850;8.924;2023-09-12T07:35:47;96501.94;;;27.97;48.40
10135;BME280;5107;48.850;8.924;2023-09-12T07:38:13;96503.50;;;28.56;50.07
10135;BME280;5107;48.850;8.924;2023-09-12T07:40:41;96505.88;;;28.86;47.05
10135;BME280;5107;48.850;8.924;2023-09-12T07:43:06;96512.06;;;29.11;45.72
10135;BME280;5107;48.850;8.924;2023-09-12T07:45:32;96512.69;;;29.59;46.95
10135;BME280;5107;48.850;8.924;2023-09-12T07:48:06;96508.81;;;29.46;44.84
10135;BME280;5107;48.850;8.924;2023-09-12T07:50:31;96514.53;;;29.26;45.40
10135;BME280;5107;48.850;8.924;2023-09-12T07:52:57;96519.56;;;29.14;45.11
10135;BME280;5107;48.850;8.924;2023-09-12T07:55:22;96517.16;;;28.93;45.96
10135;BME280;5107;48.850;8.924;2023-09-12T07:57:47;96517.97;;;28.70;45.76
10135;BME280;5107;48.850;8.924;2023-09-12T08:00:13;96515.84;;;28.14;46.55
10135;BME280;5107;48.850;8.924;2023-09-12T08:02:38;96515.34;;;28.12;48.04
10135;BME280;5107;48.850;8.924;2023-09-12T08:05:04;96519.47;;;28.57;46.61
10135;BME280;5107;48.850;8.924;2023-09-12T08:07:30;96524.03;;;28.86;47.49
10135;BME280;5107;48.850;8.924;2023-09-12T08:09:57;96518.94;;;29.59;45.45
10135;BME280;5107;48.850;8.924;2023-09-12T08:12:24;96515.63;;;29.62;44.28
10135;BME280;5107;48.850;8.924;2023-09-12T08:14:50;96517.09;;;29.55;44.67
10135;BME280;5107;48.850;8.924;2023-09-12T08:17:16;96521.56;;;29.64;44.75
10135;BME280;5107;48.850;8.924;2023-09-12T08:19:42;96514.28;;;30.11;44.60
10135;BME280;5107;48.850;8.924;2023-09-12T08:22:08;96516.88;;;30.02;44.68
10135;BME280;5107;48.850;8.924;2023-09-12T08:24:34;96514.28;;;30.11;43.48
10135;BME280;5107;48.850;8.924;2023-09-12T08:27:00;96519.25;;;30.50;43.66
10135;BME280;5107;48.850;8.924;2023-09-12T08:29:25;96505.38;;;30.79;43.74
10135;BME280;5107;48.850;8.924;2023-09-12T08:31:51;96511.00;;;30.82;43.09
10135;BME280;5107;48.850;8.924;2023-09-12T08:34:17;96505.06;;;30.67;43.99
10135;BME280;5107;48.850;8.924;2023-09-12T08:36:43;96506.28;;;30.61;43.89
10135;BME280;5107;48.850;8.924;2023-09-12T08:39:12;96507.19;;;30.56;43.87
10135;BME280;5107;48.850;8.924;2023-09-12T08:41:38;96513.09;;;30.72;44.16
10135;BME280;5107;48.850;8.924;2023-09-12T08:44:04;96515.63;;;30.82;43.06
10135;BME280;5107;48.850;8.924;2023-09-12T08:46:31;96514.34;;;30.79;44.03
10135;BME280;5107;48.850;8.924;2023-09-12T08:48:56;96515.09;;;31.07;42.15
10135;BME280;5107;48.850;8.924;2023-09-12T08:51:22;96512.69;;;30.92;40.52
10135;BME280;5107;48.850;8.924;2023-09-12T08:53:49;96510.38;;;30.72;42.46
10135;BME280;5107;48.850;8.924;2023-09-12T08:56:15;96513.31;;;30.75;43.62
10135;BME280;5107;48.850;8.924;2023-09-12T08:58:41;96513.41;;;30.84;42.19
10135;BME280;5107;48.850;8.924;2023-09-12T09:01:06;96516.53;;;30.91;41.93
10135;BME280;5107;48.850;8.924;2023-09-12T09:03:33;96515.72;;;31.04;41.64
10135;BME280;5107;48.850;8.924;2023-09-12T09:05:59;96517.63;;;31.40;40.20
10135;BME280;5107;48.850;8.924;2023-09-12T09:08:26;96517.97;;;31.60;40.75
10135;BME280;5107;48.850;8.924;2023-09-12T09:10:59;96517.69;;;31.84;40.66
10135;BME280;5107;48.850;8.924;2023-09-12T09:13:28;96522.97;;;32.12;38.64
10135;BME280;5107;48.850;8.924;2023-09-12T09:16:20;96513.44;;;32.00;36.65
10135;BME280;5107;48.850;8.924;2023-09-12T09:18:59;96519.53;;;31.75;37.32
10135;BME280;5107;48.850;8.924;2023-09-12T09:21:34;96506.22;;;31.74;37.47
10135;BME280;5107;48.850;8.924;2023-09-12T09:24:04;96500.63;;;31.70;37.90
10135;BME280;5107;48.850;8.924;2023-09-12T09:26:51;96503.91;;;31.89;38.05
10135;BME280;5107;48.850;8.924;2023-09-12T09:29:19;96489.88;;;31.96;37.55
10135;BME280;5107;48.850;8.924;2023-09-12T09:31:47;96501.72;;;32.22;38.40
10135;BME280;5107;48.850;8.924;2023-09-12T09:34:14;96495.50;;;32.22;37.84
10135;BME280;5107;48.850;8.924;2023-09-12T09:36:41;96493.66;;;32.48;37.37
10135;BME280;5107;48.850;8.924;2023-09-12T09:39:08;96498.94;;;32.45;37.84
10135;BME280;5107;48.850;8.924;2023-09-12T09:41:33;96503.34;;;32.23;37.46
10135;BME280;5107;48.850;8.924;2023-09-12T09:43:59;96507.84;;;32.28;38.71
10135;BME280;5107;48.850;8.924;2023-09-12T09:46:25;96506.09;;;32.32;39.18
10135;BME280;5107;48.850;8.924;2023-09-12T09:48:51;96500.56;;;32.46;37.43
10135;BME280;5107;48.850;8.924;2023-09-12T09:51:17;96495.19;;;32.32;38.27
10135;BME280;5107;48.850;8.924;2023-09-12T09:53:42;96494.31;;;32.45;38.11
10135;BME280;5107;48.850;8.924;2023-09-12T09:56:13;96492.28;;;32.68;37.81
10135;BME280;5107;48.850;8.924;2023-09-12T09:58:57;96490.13;;;32.96;38.89
10135;BME280;5107;48.850;8.924;2023-09-12T10:01:26;96490.28;;;33.08;37.78
10135;BME280;5107;48.850;8.924;2023-09-12T10:03:57;96481.47;;;33.02;37.86
10135;BME280;5107;48.850;8.924;2023-09-12T10:06:23;96481.19;;;32.64;37.09
10135;BME280;5107;48.850;8.924;2023-09-12T10:08:53;96477.13;;;32.36;38.32
10135;BME280;5107;48.850;8.924;2023-09-12T10:11:22;96481.19;;;32.64;38.23
10135;BME280;5107;48.850;8.924;2023-09-12T10:14:00;96482.63;;;32.53;37.45
10135;BME280;5107;48.850;8.924;2023-09-12T10:16:33;96480.38;;;32.55;38.15
10135;BME280;5107;48.850;8.924;2023-09-12T10:19:09;96481.38;;;32.68;38.48
10135;BME280;5107;48.850;8.924;2023-09-12T10:21:35;96484.00;;;32.90;37.95
10135;BME280;5107;48.850;8.924;2023-09-12T10:24:03;96487.88;;;32.81;37.86
10135;BME280;5107;48.850;8.924;2023-09-12T10:26:30;96479.44;;;32.60;37.79
10135;BME280;5107;48.850;8.924;2023-09-12T10:28:57;96482.84;;;32.74;36.96
10135;BME280;5107;48.850;8.924;2023-09-12T10:31:25;96488.56;;;33.21;37.12
10135;BME280;5107;48.850;8.924;2023-09-12T10:33:51;96483.75;;;33.35;36.75
10135;BME280;5107;48.850;8.924;2023-09-12T10:36:19;96485.19;;;33.32;36.41
10135;BME280;5107;48.850;8.924;2023-09-12T10:38:47;96485.19;;;33.32;36.53
10135;BME280;5107;48.850;8.924;2023-09-12T10:41:14;96487.28;;;33.61;37.06
10135;BME280;5107;48.850;8.924;2023-09-12T10:43:44;96483.03;;;33.98;36.11
10135;BME280;5107;48.850;8.924;2023-09-12T10:46:15;96478.91;;;33.66;35.44
10135;BME280;5107;48.850;8.924;2023-09-12T10:48:40;96484.06;;;33.50;35.58
10135;BME280;5107;48.850;8.924;2023-09-12T10:51:07;96476.34;;;33.70;35.35
10135;BME280;5107;48.850;8.924;2023-09-12T10:53:32;96472.81;;;33.69;34.75
10135;BME280;5107;48.850;8.924;2023-09-12T10:56:14;96475.84;;;33.94;35.58
10135;BME280;5107;48.850;8.924;2023-09-12T11:01:42;96467.41;;;34.16;35.78
10135;BME280;5107;48.850;8.924;2023-09-12T11:06:45;96466.72;;;33.81;36.35
10135;BME280;5107;48.850;8.924;2023-09-12T11:11:45;96459.94;;;32.92;36.83
10135;BME280;5107;48.850;8.924;2023-09-12T11:14:15;96463.31;;;32.72;37.81
10135;BME280;5107;48.850;8.924;2023-09-12T11:16:41;96459.97;;;33.01;38.67
10135;BME280;5107;48.850;8.924;2023-09-12T11:21:37;96452.88;;;33.69;39.00
10135;BME280;5107;48.850;8.924;2023-09-12T11:24:03;96454.03;;;33.59;36.91
10135;BME280;5107;48.850;8.924;2023-09-12T11:26:29;96452.53;;;33.96;36.65
10135;BME280;5107;48.850;8.924;2023-09-12T11:28:55;96444.91;;;34.10;35.80
10135;BME280;5107;48.850;8.924;2023-09-12T11:31:26;96454.38;;;34.21;35.89
10135;BME280;5107;48.850;8.924;2023-09-12T11:33:53;96445.50;;;33.86;35.77
10135;BME280;5107;48.850;8.924;2023-09-12T11:36:19;96454.03;;;33.59;36.16
10135;BME280;5107;48.850;8.924;2023-09-12T11:38:49;96446.94;;;33.15;36.16
10135;BME280;5107;48.850;8.924;2023-09-12T11:41:14;96440.25;;;33.21;38.29
10135;BME280;5107;48.850;8.924;2023-09-12T11:44:03;96455.16;;;33.32;37.30
10135;BME280;5107;48.850;8.924;2023-09-12T11:46:29;96457.69;;;32.86;37.92
10135;BME280;5107;48.850;8.924;2023-09-12T11:48:56;96447.19;;;32.53;38.07
10135;BME280;5107;48.850;8.924;2023-09-12T11:51:24;96445.66;;;32.21;39.05
10135;BME280;5107;48.850;8.924;2023-09-12T11:53:52;96454.19;;;32.06;39.40
10135;BME280;5107;48.850;8.924;2023-09-12T11:56:18;96457.41;;;31.77;39.82
10135;BME280;5107;48.850;8.924;2023-09-12T11:58:43;96462.75;;;31.38;40.99
10135;BME280;5107;48.850;8.924;2023-09-12T12:01:12;96458.91;;;31.03;44.52
10135;BME280;5107;48.850;8.924;2023-09-12T12:03:38;96455.63;;;30.65;47.46
10135;BME280;5107;48.850;8.924;2023-09-12T12:06:03;96449.59;;;30.40;47.30
10135;BME280;5107;48.850;8.924;2023-09-12T12:08:30;96450.91;;;30.02;47.92
10135;BME280;5107;48.850;8.924;2023-09-12T12:10:56;96447.31;;;30.20;49.44
10135;BME280;5107;48.850;8.924;2023-09-12T12:13:24;96443.19;;;30.36;53.59
10135;BME280;5107;48.850;8.924;2023-09-12T12:15:49;96439.97;;;30.62;50.39
10135;BME280;5107;48.850;8.924;2023-09-12T12:18:15;96445.59;;;31.01;56.30
10135;BME280;5107;48.850;8.924;2023-09-12T12:20:41;96435.75;;;31.27;54.38
10135;BME280;5107;48.850;8.924;2023-09-12T12:23:07;96439.81;;;31.83;54.20
10135;BME280;5107;48.850;8.924;2023-09-12T12:25:33;96439.47;;;31.76;50.14
10135;BME280;5107;48.850;8.924;2023-09-12T12:27:59;96448.13;;;31.34;46.44
10135;BME280;5107;48.850;8.924;2023-09-12T12:30:24;96443.09;;;30.91;47.84
10135;BME280;5107;48.850;8.924;2023-09-12T12:32:50;96438.84;;;30.63;47.48
10135;BME280;5107;48.850;8.924;2023-09-12T12:35:19;96448.09;;;30.34;48.62
10135;BME280;5107;48.850;8.924;2023-09-12T12:37:45;96447.91;;;30.03;49.12
10135;BME280;5107;48.850;8.924;2023-09-12T12:40:14;96449.63;;;29.80;48.48
10135;BME280;5107;48.850;8.924;2023-09-12T12:42:40;96446.00;;;29.71;49.27
10135;BME280;5107;48.850;8.924;2023-09-12T12:47:42;96442.41;;;29.43;49.64
10135;BME280;5107;48.850;8.924;2023-09-12T12:52:37;96430.38;;;29.31;53.33
10135;BME280;5107;48.850;8.924;2023-09-12T12:55:08;96433.31;;;29.67;52.15
10135;BME280;5107;48.850;8.924;2023-09-12T12:57:42;96443.19;;;29.76;52.48
10135;BME280;5107;48.850;8.924;2023-09-12T13:00:10;96438.06;;;29.89;51.35
10135;BME280;5107;48.850;8.924;2023-09-12T13:02:40;96429.78;;;30.26;53.06
10135;BME280;5107;48.850;8.924;2023-09-12T13:05:19;96430.41;;;30.37;51.97
10135;BME280;5107;48.850;8.924;2023-09-12T13:07:44;96421.31;;;30.69;57.31
10135;BME280;5107;48.850;8.924;2023-09-12T13:10:10;96415.91;;;30.91;57.77
10135;BME280;5107;48.850;8.924;2023-09-12T13:12:35;96412.19;;;31.23;56.19
10135;BME280;5107;48.850;8.924;2023-09-12T13:15:01;96407.31;;;31.34;55.36
10135;BME280;5107;48.850;8.924;2023-09-12T13:17:26;96402.66;;;31.79;47.87
10135;BME280;5107;48.850;8.924;2023-09-12T13:19:52;96402.84;;;32.22;41.25
10135;BME280;5107;48.850;8.924;2023-09-12T13:22:17;96408.75;;;31.84;41.56
10135;BME280;5107;48.850;8.924;2023-09-12T13:24:42;96409.03;;;31.74;42.96
10135;BME280;5107;48.850;8.924;2023-09-12T13:27:08;96403.88;;;31.73;41.13
10135;BME280;5107;48.850;8.924;2023-09-12T13:29:33;96398.28;;;31.24;43.77
10135;BME280;5107;48.850;8.924;2023-09-12T13:31:58;96401.09;;;30.97;49.10
10135;BME280;5107;48.850;8.924;2023-09-12T13:34:24;96401.09;;;30.97;49.25
10135;BME280;5107;48.850;8.924;2023-09-12T13:36:49;96397.19;;;31.25;45.07
10135;BME280;5107;48.850;8.924;2023-09-12T13:39:14;96389.13;;;31.65;44.25
10135;BME280;5107;48.850;8.924;2023-09-12T13:41:39;96388.97;;;32.01;43.77